Time;durP1;ratioP1;P1;durP2;ratioP2;P2;SDS_P1;SDS_P2;PMS_P1;PMS_P2;Temp;Humidity;BMP_temperature;BMP_pressure;BME280_temperature;BME280_humidity;BME280_pressure;Samples;Min_cycle;Max_cycle;Signal;HPM_P1;HPM_P2
2023/08/18 00:00:37;;;;;;;6.50;5.90;;;;;;;25.71;46.28;95190.25;6191617;28;109724;-73
2023/08/18 00:03:40;;;;;;;6.00;5.50;;;;;;;25.72;46.76;95189.16;6208323;28;110079;-74
2023/08/18 00:06:43;;;;;;;6.25;5.65;;;;;;;25.85;46.12;95187.31;6208355;28;109723;-74
2023/08/18 00:09:47;;;;;;;6.80;5.90;;;;;;;25.75;46.38;95183.13;6179132;28;109941;-73
2023/08/18 00:12:50;;;;;;;6.90;5.80;;;;;;;25.69;46.47;95182.53;6185108;28;110731;-73
2023/08/18 00:15:53;;;;;;;6.73;5.30;;;;;;;25.67;46.23;95176.69;6192102;28;110066;-73
2023/08/18 00:18:57;;;;;;;6.50;5.50;;;;;;;25.68;45.90;95177.50;6197346;28;110122;-73
2023/08/18 00:22:00;;;;;;;8.33;5.23;;;;;;;25.64;45.95;95182.72;6199853;28;109833;-74
2023/08/18 00:25:05;;;;;;;6.07;5.40;;;;;;;25.61;45.70;95180.69;6193612;28;111175;-73
2023/08/18 00:28:08;;;;;;;6.23;5.30;;;;;;;25.63;46.13;95177.69;6185134;28;111008;-74
2023/08/18 00:31:11;;;;;;;5.70;5.20;;;;;;;25.67;45.74;95183.97;6185000;28;112107;-73
2023/08/18 00:34:14;;;;;;;6.50;5.37;;;;;;;25.58;45.59;95173.31;6181717;28;108999;-73
2023/08/18 00:37:17;;;;;;;8.47;5.50;;;;;;;25.59;45.89;95169.53;6204883;28;109907;-74
2023/08/18 00:40:23;;;;;;;5.60;5.10;;;;;;;25.71;45.65;95179.53;6185529;28;109964;-72
2023/08/18 00:43:26;;;;;;;7.22;5.10;;;;;;;25.67;45.84;95168.66;6182820;28;109902;-71
2023/08/18 00:46:31;;;;;;;5.75;5.15;;;;;;;25.60;45.97;95176.44;6201162;28;109905;-74
2023/08/18 00:49:34;;;;;;;6.10;5.30;;;;;;;25.64;46.02;95166.63;6196976;28;109617;-73
2023/08/18 00:52:38;;;;;;;7.20;5.20;;;;;;;25.62;45.65;95173.44;6184594;28;110057;-73
2023/08/18 00:55:43;;;;;;;5.90;5.30;;;;;;;25.65;45.88;95165.53;6176885;28;109867;-73
2023/08/18 00:58:46;;;;;;;5.83;5.30;;;;;;;25.62;45.50;95173.44;6197350;28;109814;-72
2023/08/18 01:01:50;;;;;;;5.78;5.28;;;;;;;25.57;45.64;95176.31;6201656;28;109917;-72
2023/08/18 01:04:53;;;;;;;7.43;5.10;;;;;;;25.58;45.51;95175.22;6197322;28;109786;-73
2023/08/18 01:07:56;;;;;;;5.80;5.30;;;;;;;25.54;45.66;95171.59;6196849;28;109985;-72
2023/08/18 01:11:06;;;;;;;6.80;5.50;;;;;;;25.47;45.57;95158.69;6209020;28;110162;-72
2023/08/18 01:14:20;;;;;;;6.50;5.35;;;;;;;25.50;45.96;95166.09;6201002;28;109721;-64
2023/08/18 01:17:28;;;;;;;6.10;5.50;;;;;;;25.45;45.88;95168.97;6178220;28;109792;-62
2023/08/18 01:20:33;;;;;;;5.93;5.33;;;;;;;25.46;45.83;95167.06;6184183;28;110397;-62
2023/08/18 01:23:41;;;;;;;7.93;5.60;;;;;;;25.42;45.79;95164.25;6190638;28;112338;-62
2023/08/18 01:26:44;;;;;;;9.27;5.70;;;;;;;25.42;45.79;95169.63;6183680;28;109930;-62
2023/08/18 01:29:47;;;;;;;6.18;5.68;;;;;;;25.42;46.04;95169.63;6192831;28;109917;-65
2023/08/18 01:33:01;;;;;;;6.68;5.90;;;;;;;25.38;46.46;95171.38;6194432;28;110787;-63
2023/08/18 01:36:09;;;;;;;7.20;6.20;;;;;;;25.39;46.31;95170.28;6204328;28;109721;-64
2023/08/18 01:39:15;;;;;;;6.43;5.90;;;;;;;25.33;46.27;95182.22;6188814;28;109786;-62
2023/08/18 01:42:18;;;;;;;6.35;5.75;;;;;;;25.29;46.15;95178.63;6173191;28;110111;-62
2023/08/18 01:45:22;;;;;;;7.20;6.00;;;;;;;25.34;46.00;95175.75;6184182;28;110122;-62
2023/08/18 01:48:25;;;;;;;6.50;5.90;;;;;;;25.32;46.16;95175.31;6188056;28;110398;-62
2023/08/18 01:51:28;;;;;;;6.80;5.60;;;;;;;25.24;46.50;95168.91;6203720;28;113730;-62
2023/08/18 01:54:33;;;;;;;6.35;5.75;;;;;;;25.27;46.50;95164.78;6201014;28;109851;-61
2023/08/18 01:57:36;;;;;;;6.07;5.47;;;;;;;25.26;46.53;95155.97;6191791;28;110109;-62
2023/08/18 02:00:39;;;;;;;6.10;5.30;;;;;;;25.32;46.51;95148.50;6190155;28;109791;-62
2023/08/18 02:03:42;;;;;;;6.65;5.80;;;;;;;25.23;46.58;95150.47;6186993;28;109808;-61
2023/08/18 02:06:45;;;;;;;6.47;5.90;;;;;;;25.28;46.12;95142.25;6196341;28;110107;-62
2023/08/18 02:09:50;;;;;;;7.55;6.85;;;;;;;25.36;46.16;95147.56;6200570;28;109562;-61
2023/08/18 02:12:53;;;;;;;6.90;6.20;;;;;;;25.40;45.77;95145.06;6186409;28;109733;-62
2023/08/18 02:15:56;;;;;;;6.43;5.82;;;;;;;25.33;46.14;95140.16;6194342;28;110795;-62
2023/08/18 02:18:59;;;;;;;7.25;5.70;;;;;;;25.42;46.03;95142.81;6200373;28;109788;-62
2023/08/18 02:22:02;;;;;;;6.75;5.80;;;;;;;25.46;46.11;95138.38;6186148;28;109732;-62
2023/08/18 02:25:08;;;;;;;6.23;5.63;;;;;;;25.46;45.98;95134.91;6195841;28;110005;-61
2023/08/18 02:28:11;;;;;;;6.50;5.63;;;;;;;25.53;46.60;95143.22;6176012;28;110187;-62
2023/08/18 02:31:14;;;;;;;6.53;5.83;;;;;;;25.58;45.87;95143.81;6186410;28;111472;-63
2023/08/18 02:34:17;;;;;;;7.00;6.20;;;;;;;25.56;46.03;95143.38;6193270;28;111087;-62
2023/08/18 02:37:20;;;;;;;6.30;5.70;;;;;;;25.45;46.27;95136.81;6176626;28;109814;-66
2023/08/18 02:40:25;;;;;;;7.78;5.70;;;;;;;25.44;46.13;95137.13;6192320;28;109777;-62
2023/08/18 02:43:28;;;;;;;6.22;5.63;;;;;;;25.36;46.43;95128.03;6186342;28;109619;-62
2023/08/18 02:46:31;;;;;;;6.10;5.60;;;;;;;25.38;46.17;95136.56;6186301;28;109928;-63
2023/08/18 02:49:34;;;;;;;6.38;5.70;;;;;;;25.42;46.21;95134.00;6176668;28;110412;-62
2023/08/18 02:52:37;;;;;;;6.13;5.55;;;;;;;25.48;46.24;95136.16;6186259;28;112778;-62
2023/08/18 02:55:42;;;;;;;6.80;6.10;;;;;;;25.53;45.93;95144.00;6192793;28;109803;-61
2023/08/18 02:58:45;;;;;;;6.40;5.90;;;;;;;25.57;46.05;95130.75;6186365;28;110398;-64
2023/08/18 03:01:48;;;;;;;6.10;5.60;;;;;;;25.56;46.07;95138.00;6173201;28;109748;-63
2023/08/18 03:04:52;;;;;;;6.25;5.40;;;;;;;25.43;46.44;95141.72;6185675;28;109735;-60
2023/08/18 03:07:55;;;;;;;7.55;6.00;;;;;;;25.44;46.24;95132.56;6185406;28;110876;-61
2023/08/18 03:11:01;;;;;;;6.60;6.00;;;;;;;25.50;46.25;95139.28;6195439;28;112093;-61
2023/08/18 03:14:07;;;;;;;6.82;6.22;;;;;;;25.40;46.54;95137.00;6204463;28;110282;-61
2023/08/18 03:17:10;;;;;;;7.10;6.40;;;;;;;25.37;46.80;95135.78;6207932;28;110054;-61
2023/08/18 03:20:14;;;;;;;6.40;5.50;;;;;;;25.47;46.22;95134.59;6205607;28;109547;-61
2023/08/18 03:23:19;;;;;;;7.22;6.53;;;;;;;25.50;46.41;95136.63;6183626;28;110196;-61
2023/08/18 03:26:23;;;;;;;6.70;5.40;;;;;;;25.49;46.17;95140.41;6194170;28;109872;-62
2023/08/18 03:29:26;;;;;;;6.88;6.18;;;;;;;25.54;46.07;95140.22;6185656;28;109854;-62
2023/08/18 03:32:29;;;;;;;6.15;5.60;;;;;;;25.58;46.06;95151.88;6185579;28;110896;-61
2023/08/18 03:35:35;;;;;;;10.07;7.20;;;;;;;25.53;46.60;95133.28;6174264;28;109792;-62
2023/08/18 03:38:38;;;;;;;14.77;13.63;;;;;;;25.50;46.62;95133.94;6184497;28;110485;-63
2023/08/18 03:41:43;;;;;;;20.43;18.60;;;;;;;25.58;46.40;95143.81;6185234;28;110251;-61
2023/08/18 03:44:46;;;;;;;26.40;24.25;;;;;;;25.56;46.66;95142.59;6182151;28;109824;-65
2023/08/18 03:47:49;;;;;;;10.00;9.20;;;;;;;25.37;47.51;95151.03;6193164;28;110289;-63
2023/08/18 03:50:52;;;;;;;8.40;7.60;;;;;;;25.17;47.24;95141.03;6195723;28;110325;-63
2023/08/18 03:53:55;;;;;;;9.57;8.02;;;;;;;25.20;47.27;95145.72;6196981;28;109696;-63
2023/08/18 03:56:59;;;;;;;10.68;8.10;;;;;;;25.17;47.42;95146.38;6178880;28;111224;-65
2023/08/18 04:00:03;;;;;;;7.30;6.60;;;;;;;25.01;47.35;95138.91;6186807;28;109750;-62
2023/08/18 04:03:06;;;;;;;7.35;6.65;;;;;;;24.96;47.63;95141.75;6202586;28;109913;-63
2023/08/18 04:06:12;;;;;;;7.40;6.20;;;;;;;25.07;46.88;95148.34;6204527;28;112086;-62
2023/08/18 04:09:16;;;;;;;6.97;6.38;;;;;;;25.25;47.09;95145.56;6172926;28;109784;-67
2023/08/18 04:12:21;;;;;;;7.50;6.80;;;;;;;25.40;46.62;95146.94;6193160;28;109855;-62
2023/08/18 04:15:24;;;;;;;8.77;6.55;;;;;;;25.32;47.14;95149.31;6202715;28;109999;-62
2023/08/18 04:18:27;;;;;;;7.55;6.85;;;;;;;25.33;47.06;95150.09;6187324;28;109812;-63
2023/08/18 04:21:31;;;;;;;9.00;8.20;;;;;;;25.43;46.75;95139.03;6180852;28;109788;-62
2023/08/18 04:24:34;;;;;;;9.37;8.47;;;;;;;25.48;46.54;95143.41;6184749;28;109794;-62
2023/08/18 04:27:39;;;;;;;9.50;8.60;;;;;;;25.43;46.51;95155.13;6204179;28;109805;-62
2023/08/18 04:30:46;;;;;;;9.25;7.65;;;;;;;25.35;47.04;95158.59;6203381;28;109946;-61
2023/08/18 04:33:49;;;;;;;10.43;9.17;;;;;;;25.33;47.03;95160.81;6188190;28;111277;-64
2023/08/18 04:36:52;;;;;;;9.57;7.60;;;;;;;25.21;47.71;95158.03;6184113;28;110083;-62
2023/08/18 04:39:55;;;;;;;9.82;7.60;;;;;;;25.24;47.46;95158.19;6187888;28;109520;-61
2023/08/18 04:43:00;;;;;;;9.77;8.00;;;;;;;25.42;46.93;95163.47;6191951;28;110119;-62
2023/08/18 04:46:03;;;;;;;24.85;22.65;;;;;;;25.43;47.29;95171.19;6195182;28;109767;-70
2023/08/18 04:49:06;;;;;;;11.93;9.15;;;;;;;25.34;47.29;95170.41;6192176;28;110160;-69
2023/08/18 04:52:10;;;;;;;9.10;7.65;;;;;;;25.19;47.45;95162.91;6184473;28;109800;-70
2023/08/18 04:55:13;;;;;;;8.50;7.68;;;;;;;25.00;47.99;95164.09;6179345;28;110647;-70
2023/08/18 04:58:17;;;;;;;8.30;7.50;;;;;;;25.01;48.07;95164.88;6206233;28;109909;-70
2023/08/18 05:01:20;;;;;;;7.70;7.10;;;;;;;24.82;48.42;95162.59;6196386;28;110986;-70
2023/08/18 05:04:24;;;;;;;8.73;6.50;;;;;;;24.80;48.33;95167.47;6189639;28;109836;-71
2023/08/18 05:07:27;;;;;;;7.50;6.32;;;;;;;24.90;48.08;95169.81;6178556;28;109942;-70
2023/08/18 05:10:30;;;;;;;10.87;6.77;;;;;;;25.06;48.17;95162.03;6183144;28;110046;-69
2023/08/18 05:13:35;;;;;;;12.03;7.00;;;;;;;25.02;48.16;95166.44;6195866;28;109871;-71
2023/08/18 05:16:38;;;;;;;11.20;7.00;;;;;;;24.96;48.63;95173.88;6182330;28;109947;-67
2023/08/18 05:19:41;;;;;;;8.10;6.80;;;;;;;24.89;48.45;95173.59;6194189;28;112589;-71
2023/08/18 05:22:44;;;;;;;6.97;6.30;;;;;;;24.92;48.37;95161.47;6184555;28;109773;-71
2023/08/18 05:25:48;;;;;;;8.93;6.30;;;;;;;24.91;49.04;95171.41;6183319;28;110076;-71
2023/08/18 05:28:52;;;;;;;11.18;8.35;;;;;;;24.56;49.30;95170.69;6184373;28;109777;-68
2023/08/18 05:31:55;;;;;;;7.93;7.13;;;;;;;24.57;49.88;95177.59;6183010;28;110099;-70
2023/08/18 05:34:58;;;;;;;10.00;7.77;;;;;;;24.91;49.25;95179.44;6197758;28;110475;-71
2023/08/18 05:38:01;;;;;;;8.73;7.43;;;;;;;25.21;48.80;95176.78;6188698;28;110011;-68
2023/08/18 05:41:07;;;;;;;8.43;7.53;;;;;;;24.98;49.31;95178.91;6184663;28;110084;-70
2023/08/18 05:44:15;;;;;;;8.40;7.50;;;;;;;25.28;48.63;95177.06;6205793;28;109824;-70
2023/08/18 05:47:18;;;;;;;9.00;7.50;;;;;;;25.52;47.94;95179.94;6190868;28;112158;-70
2023/08/18 05:50:21;;;;;;;10.60;8.27;;;;;;;25.71;48.01;95176.88;6196668;28;109914;-69
2023/08/18 05:53:24;;;;;;;8.10;7.30;;;;;;;25.82;47.86;95171.88;6189339;28;110129;-70
2023/08/18 05:56:27;;;;;;;7.15;6.45;;;;;;;25.99;47.08;95177.13;6188524;28;110199;-70
2023/08/18 05:59:33;;;;;;;8.30;7.70;;;;;;;26.05;47.30;95180.44;6187093;28;109853;-71
2023/08/18 06:02:36;;;;;;;8.67;6.83;;;;;;;26.14;47.09;95181.13;6179857;28;110985;-70
2023/08/18 06:05:39;;;;;;;7.13;6.33;;;;;;;25.66;47.45;95175.13;6185672;28;109928;-71
2023/08/18 06:08:42;;;;;;;7.27;6.57;;;;;;;25.58;48.32;95178.66;6188331;28;110985;-70
2023/08/18 06:11:46;;;;;;;7.97;6.20;;;;;;;25.73;48.12;95177.31;6196981;28;110166;-72
2023/08/18 06:14:50;;;;;;;7.40;6.43;;;;;;;25.48;48.00;95175.56;6188387;28;109695;-70
2023/08/18 06:17:53;;;;;;;6.40;5.80;;;;;;;25.47;47.59;95172.09;6191997;28;109897;-70
2023/08/18 06:20:56;;;;;;;7.88;7.07;;;;;;;25.56;47.64;95174.75;6191593;28;110910;-70
2023/08/18 06:24:01;;;;;;;7.78;6.97;;;;;;;25.87;47.06;95174.34;6189142;28;109959;-69
2023/08/18 06:27:04;;;;;;;7.55;6.82;;;;;;;26.03;47.27;95179.94;6194995;28;109794;-68
2023/08/18 06:30:11;;;;;;;8.73;6.68;;;;;;;26.28;47.23;95178.97;6192317;28;109872;-66
2023/08/18 06:33:14;;;;;;;8.82;6.78;;;;;;;26.36;46.52;95186.16;6199504;28;110095;-71
2023/08/18 06:36:17;;;;;;;7.22;6.60;;;;;;;26.27;46.87;95182.78;6182847;28;110827;-69
2023/08/18 06:39:20;;;;;;;7.47;6.80;;;;;;;26.36;47.32;95188.81;6195631;28;110114;-69
2023/08/18 06:42:23;;;;;;;8.23;6.72;;;;;;;26.43;46.67;95185.63;6199331;28;109567;-68
2023/08/18 06:45:28;;;;;;;7.35;6.68;;;;;;;26.37;46.57;95186.94;6186802;28;109827;-69
2023/08/18 06:48:31;;;;;;;6.73;6.17;;;;;;;26.45;46.64;95189.53;6185736;28;110396;-69
2023/08/18 06:51:34;;;;;;;7.40;6.33;;;;;;;26.56;46.40;95187.25;6188101;28;110147;-69
2023/08/18 06:57:57;;;;;;;8.07;6.20;;;;;;;26.66;45.10;95189.53;6106187;23;111795;-66
2023/08/18 07:01:03;;;;;;;7.90;6.47;;;;;;;26.65;44.86;95187.97;6057574;28;111162;-67
2023/08/18 07:04:06;;;;;;;6.65;5.95;;;;;;;26.67;45.16;95188.41;6060029;28;109745;-65
2023/08/18 07:07:10;;;;;;;7.33;6.60;;;;;;;26.77;45.14;95187.22;6060466;28;109971;-66
2023/08/18 07:10:13;;;;;;;7.47;6.23;;;;;;;26.98;45.26;95179.09;6064811;28;111103;-66
2023/08/18 07:13:16;;;;;;;7.30;6.60;;;;;;;27.06;44.56;95186.28;6053696;28;109797;-67
2023/08/18 07:16:20;;;;;;;6.80;5.50;;;;;;;27.10;43.92;95173.72;6060254;28;110287;-66
2023/08/18 07:19:24;;;;;;;7.95;5.68;;;;;;;27.05;44.16;95180.13;6065125;28;109712;-66
2023/08/18 07:22:27;;;;;;;6.00;5.40;;;;;;;27.05;44.15;95179.31;6051552;28;109821;-66
2023/08/18 07:25:31;;;;;;;8.98;6.00;;;;;;;27.06;44.02;95168.25;6063650;28;109922;-66
2023/08/18 07:28:34;;;;;;;6.68;5.70;;;;;;;27.24;44.12;95165.34;6062869;28;109993;-66
2023/08/18 07:31:39;;;;;;;15.23;6.60;;;;;;;27.27;44.67;95170.84;6063938;28;109702;-66
2023/08/18 07:34:42;;;;;;;9.85;5.80;;;;;;;27.39;43.20;95170.88;6059004;28;109795;-65
2023/08/18 07:37:45;;;;;;;6.82;5.40;;;;;;;27.51;42.79;95163.91;6060257;28;109746;-66
2023/08/18 07:40:53;;;;;;;5.97;4.90;;;;;;;27.48;42.62;95159.97;6057871;28;110394;-68
2023/08/18 07:43:56;;;;;;;8.40;5.30;;;;;;;27.48;42.92;95165.34;6038002;28;109522;-66
2023/08/18 07:47:00;;;;;;;8.80;4.97;;;;;;;27.59;42.98;95166.47;6065706;28;110104;-66
2023/08/18 07:50:04;;;;;;;15.60;7.60;;;;;;;26.89;44.37;95151.56;6079881;28;109826;-66
2023/08/18 07:53:07;;;;;;;207.90;30.27;;;;;;;25.47;45.80;95155.25;6064693;28;110503;-67
2023/08/18 07:56:10;;;;;;;175.10;28.70;;;;;;;24.96;46.60;95168.53;6046950;28;109821;-66
2023/08/18 07:59:15;;;;;;;139.80;25.80;;;;;;;24.78;46.17;95165.13;6087851;28;110283;-66
2023/08/18 08:02:19;;;;;;;129.27;25.00;;;;;;;24.74;44.65;95156.19;6073075;28;109657;-65
2023/08/18 08:05:32;;;;;;;117.97;22.23;;;;;;;24.70;44.61;95157.13;6073349;28;111093;-70
2023/08/18 08:08:36;;;;;;;104.40;23.40;;;;;;;24.28;44.44;95161.44;6051335;28;109910;-70
2023/08/18 08:11:39;;;;;;;90.47;21.47;;;;;;;24.25;43.81;95160.19;6060601;28;110226;-71
2023/08/18 08:14:42;;;;;;;80.80;20.50;;;;;;;24.17;43.28;95153.72;6060813;28;110110;-70
2023/08/18 08:17:47;;;;;;;68.07;17.90;;;;;;;24.16;42.76;95148.69;6055755;28;109826;-71
2023/08/18 08:20:50;;;;;;;90.60;21.20;;;;;;;24.05;42.40;95144.78;6058835;28;109832;-71
2023/08/18 08:23:53;;;;;;;84.25;20.10;;;;;;;24.09;42.43;95140.38;6051619;28;109968;-69
2023/08/18 08:26:56;;;;;;;75.97;18.40;;;;;;;24.25;41.87;95143.34;6061306;28;109844;-70
2023/08/18 08:30:00;;;;;;;107.72;21.45;;;;;;;24.52;41.53;95142.97;6050417;28;109704;-70
2023/08/18 08:33:08;;;;;;;94.90;21.40;;;;;;;24.57;41.47;95142.81;6053395;28;110138;-70
2023/08/18 08:36:11;;;;;;;70.57;19.17;;;;;;;24.61;41.18;95140.28;6062789;28;111103;-69
2023/08/18 08:39:14;;;;;;;220.85;33.97;;;;;;;24.63;40.94;95135.38;6060661;28;112363;-69
2023/08/18 08:42:17;;;;;;;243.65;37.00;;;;;;;24.62;40.83;95141.84;6045799;28;109976;-71
2023/08/18 08:45:21;;;;;;;170.23;32.10;;;;;;;24.67;40.91;95142.44;6060572;28;113111;-70
2023/08/18 08:48:31;;;;;;;136.15;26.27;;;;;;;24.66;41.37;95138.22;6055915;28;109841;-67
2023/08/18 08:51:38;;;;;;;120.85;23.83;;;;;;;24.76;42.17;95139.78;6073865;28;111650;-68
2023/08/18 08:54:59;;;;;;;79.93;18.33;;;;;;;24.65;42.64;95142.00;6055262;28;110017;-68
2023/08/18 08:58:03;;;;;;;52.85;16.23;;;;;;;24.10;43.92;95137.38;6056498;28;109909;-69
2023/08/18 09:01:06;;;;;;;53.17;15.93;;;;;;;23.89;44.64;95145.22;6061032;28;109784;-69
2023/08/18 09:04:12;;;;;;;47.60;13.95;;;;;;;23.79;44.63;95137.50;6064219;28;109836;-70
2023/08/18 09:07:15;;;;;;;36.03;12.63;;;;;;;23.89;43.74;95137.22;6069083;28;109779;-68
2023/08/18 09:10:19;;;;;;;36.57;12.67;;;;;;;23.53;44.15;95134.03;6064045;28;108823;-70
2023/08/18 09:13:24;;;;;;;43.88;12.88;;;;;;;23.48;45.03;95131.50;6064355;28;109757;-70
2023/08/18 09:16:27;;;;;;;41.08;13.95;;;;;;;23.51;46.00;95130.88;6056746;28;111726;-72
2023/08/18 09:19:32;;;;;;;36.80;13.35;;;;;;;23.72;45.24;95125.72;6075740;28;110935;-73
2023/08/18 09:22:36;;;;;;;64.18;16.55;;;;;;;23.66;45.52;95126.97;6076861;28;110054;-73
2023/08/18 09:25:39;;;;;;;106.63;21.48;;;;;;;23.56;45.81;95118.19;6063714;28;110071;-72
2023/08/18 09:28:42;;;;;;;285.20;35.30;;;;;;;23.82;45.87;95118.16;6046680;28;110064;-72
2023/08/18 09:31:46;;;;;;;229.87;35.10;;;;;;;23.71;45.79;95130.28;6053980;28;110119;-71
2023/08/18 09:34:51;;;;;;;158.95;27.75;;;;;;;23.71;46.68;95127.63;6065570;28;109614;-73
2023/08/18 09:37:59;;;;;;;114.22;22.42;;;;;;;23.93;46.39;95117.88;6048395;28;110085;-72
2023/08/18 09:41:03;;;;;;;90.35;20.40;;;;;;;23.64;46.96;95119.25;6064285;28;110896;-74
2023/08/18 09:44:06;;;;;;;76.60;19.45;;;;;;;23.62;47.50;95128.69;6047524;28;110263;-70
2023/08/18 09:47:12;;;;;;;60.53;16.37;;;;;;;23.82;46.46;95123.50;6050498;28;113017;-71
2023/08/18 09:50:19;;;;;;;56.47;16.15;;;;;;;23.80;46.06;95123.03;6041801;28;109345;-70
2023/08/18 09:53:28;;;;;;;60.50;16.70;;;;;;;23.79;46.81;95112.69;6050434;28;109947;-71
2023/08/18 09:56:36;;;;;;;45.47;14.80;;;;;;;23.92;46.02;95110.94;6065563;28;109954;-73
2023/08/18 09:59:43;;;;;;;40.72;13.70;;;;;;;24.07;46.28;95113.97;6060207;28;109728;-69
2023/08/18 10:02:49;;;;;;;30.65;11.52;;;;;;;23.99;46.29;95114.69;6060548;28;109788;-73
2023/08/18 10:05:54;;;;;;;27.73;10.20;;;;;;;24.00;46.25;95112.84;6066705;28;110014;-73
2023/08/18 10:08:58;;;;;;;21.88;9.52;;;;;;;23.95;46.37;95119.13;6067468;28;109948;-74
2023/08/18 10:12:02;;;;;;;24.35;10.00;;;;;;;23.84;46.85;95105.28;6052984;28;109832;-72
2023/08/18 10:15:07;;;;;;;18.52;9.50;;;;;;;23.70;47.09;95112.69;6064095;28;109561;-70
2023/08/18 10:18:11;;;;;;;17.23;8.33;;;;;;;24.00;46.19;95110.97;6065994;28;109899;-71
2023/08/18 10:21:16;;;;;;;18.42;8.18;;;;;;;23.58;47.19;95105.28;6066932;28;109518;-72
2023/08/18 10:24:19;;;;;;;17.05;7.90;;;;;;;23.50;47.07;95105.25;6051563;28;110223;-71
2023/08/18 10:27:36;;;;;;;14.30;7.88;;;;;;;23.47;47.25;95109.34;6066662;28;109927;-72
2023/08/18 10:30:39;;;;;;;12.65;7.20;;;;;;;23.78;46.34;95114.56;6052225;28;109948;-75
2023/08/18 10:33:44;;;;;;;11.52;6.60;;;;;;;23.90;44.80;95111.28;6060067;28;110235;-72
2023/08/18 10:36:49;;;;;;;9.90;6.40;;;;;;;23.45;46.94;95106.22;6059924;28;109941;-72
2023/08/18 10:39:52;;;;;;;10.32;6.43;;;;;;;23.38;46.69;95108.56;6066166;28;112819;-72
2023/08/18 10:42:59;;;;;;;26.48;8.15;;;;;;;23.35;47.01;95100.38;6065423;28;113146;-72
2023/08/18 10:46:02;;;;;;;59.70;11.60;;;;;;;23.38;46.86;95113.13;6055148;28;110741;-74
2023/08/18 10:49:06;;;;;;;78.88;15.18;;;;;;;23.67;46.50;95105.28;6057412;28;109754;-72
2023/08/18 10:52:14;;;;;;;77.55;14.63;;;;;;;23.38;47.20;95105.13;6082004;28;110344;-72
2023/08/18 10:55:17;;;;;;;47.90;13.83;;;;;;;23.46;47.67;95094.44;6052660;28;110170;-72
2023/08/18 10:58:20;;;;;;;38.50;10.70;;;;;;;23.28;47.99;95096.25;6031736;28;109816;-72
2023/08/18 11:01:23;;;;;;;32.85;10.35;;;;;;;23.34;47.54;95091.56;6048292;28;109993;-70
2023/08/18 11:04:27;;;;;;;15.60;7.65;;;;;;;23.70;46.04;95090.53;6062329;28;109936;-72
2023/08/18 11:07:31;;;;;;;12.00;7.37;;;;;;;23.98;45.07;95080.28;6063208;28;109874;-72
2023/08/18 11:10:35;;;;;;;13.70;7.85;;;;;;;23.39;46.70;95085.31;6057479;28;110270;-72
2023/08/18 11:13:38;;;;;;;17.13;7.78;;;;;;;23.30;46.75;95075.41;6064204;28;109960;-72
2023/08/18 11:16:42;;;;;;;12.45;7.35;;;;;;;23.33;46.87;95082.00;6065294;28;109404;-71
2023/08/18 11:19:45;;;;;;;15.97;7.20;;;;;;;23.39;46.90;95085.31;6051425;28;110290;-66
2023/08/18 11:22:52;;;;;;;15.93;8.07;;;;;;;23.32;47.11;95076.97;6054194;28;110991;-73
2023/08/18 11:25:55;;;;;;;11.95;7.50;;;;;;;23.22;46.81;95081.50;6065207;28;109931;-74
2023/08/18 11:28:59;;;;;;;9.10;6.70;;;;;;;23.37;46.38;95072.28;6053274;28;109812;-74
2023/08/18 11:32:02;;;;;;;8.40;6.80;;;;;;;23.24;46.71;95083.84;6045763;28;110153;-73
2023/08/18 11:35:08;;;;;;;11.10;7.00;;;;;;;23.37;46.45;95076.84;6061450;28;109979;-72
2023/08/18 11:38:12;;;;;;;15.03;6.60;;;;;;;23.49;46.91;95076.97;6058363;28;110267;-68
2023/08/18 11:41:15;;;;;;;17.00;7.22;;;;;;;23.25;47.13;95066.72;6057761;28;109867;-63
2023/08/18 11:44:21;;;;;;;15.77;6.65;;;;;;;23.18;46.76;95058.38;6039850;28;109818;-63
2023/08/18 11:47:24;;;;;;;11.25;6.90;;;;;;;23.24;46.58;95051.81;6057040;28;109981;-64
2023/08/18 11:50:31;;;;;;;8.63;6.83;;;;;;;23.12;46.76;95052.41;6063940;28;109966;-63
2023/08/18 11:53:39;;;;;;;10.10;7.22;;;;;;;23.05;47.12;95049.44;6057887;28;109924;-64
2023/08/18 11:56:42;;;;;;;10.80;7.13;;;;;;;23.14;46.52;95054.78;6060121;28;109622;-64
2023/08/18 11:59:46;;;;;;;8.50;6.65;;;;;;;23.14;46.86;95052.88;6063141;28;110921;-63
2023/08/18 12:02:49;;;;;;;16.73;7.30;;;;;;;23.11;46.67;95042.06;6048884;28;111066;-63
2023/08/18 12:05:54;;;;;;;26.90;7.40;;;;;;;23.17;45.72;95044.25;6036920;28;109727;-65
2023/08/18 12:08:59;;;;;;;22.77;8.02;;;;;;;23.18;45.59;95053.81;6062007;28;109832;-64
2023/08/18 12:12:13;;;;;;;16.52;7.20;;;;;;;23.17;46.05;95041.56;6056310;28;110090;-64
2023/08/18 12:15:16;;;;;;;19.40;7.30;;;;;;;23.08;46.96;95046.13;6050230;28;109809;-64
2023/08/18 12:18:19;;;;;;;16.85;7.28;;;;;;;23.20;47.00;95046.31;6051842;28;110121;-66
2023/08/18 12:21:24;;;;;;;14.65;7.05;;;;;;;23.07;46.59;95047.22;6057124;28;130843;-66
2023/08/18 12:24:29;;;;;;;35.45;17.20;;;;;;;23.06;47.02;95045.66;6061702;28;110365;-66
2023/08/18 12:27:33;;;;;;;25.20;13.40;;;;;;;23.05;47.35;95052.09;6058179;28;112795;-64
2023/08/18 12:30:37;;;;;;;43.55;13.30;;;;;;;23.04;46.69;95052.41;6056751;28;110132;-65
2023/08/18 12:33:40;;;;;;;46.57;13.73;;;;;;;23.06;46.88;95044.88;6061560;28;109942;-64
2023/08/18 12:36:43;;;;;;;33.10;11.90;;;;;;;23.06;46.96;95045.66;6057581;28;109818;-66
2023/08/18 12:39:48;;;;;;;28.60;11.87;;;;;;;23.04;47.42;95047.06;6044374;28;111177;-64
2023/08/18 12:42:52;;;;;;;21.48;10.23;;;;;;;23.20;46.42;95030.31;6061789;28;109842;-66
2023/08/18 12:45:55;;;;;;;21.88;10.07;;;;;;;23.17;46.47;95033.56;6062832;28;109809;-66
2023/08/18 12:48:58;;;;;;;21.92;10.27;;;;;;;23.12;47.30;95036.41;6042981;28;109814;-71
2023/08/18 12:52:01;;;;;;;19.73;10.50;;;;;;;23.15;47.22;95027.75;6046430;28;109734;-71
2023/08/18 12:55:07;;;;;;;22.13;10.30;;;;;;;23.11;47.68;95029.50;6059957;28;110730;-69
2023/08/18 12:58:10;;;;;;;23.57;10.00;;;;;;;23.17;47.69;95035.47;6062752;28;109904;-70
2023/08/18 13:01:13;;;;;;;21.30;10.37;;;;;;;23.15;47.57;95046.44;6047202;28;109867;-70
2023/08/18 13:04:16;;;;;;;20.10;9.60;;;;;;;23.08;47.41;95038.13;6054632;28;108814;-69
2023/08/18 13:07:19;;;;;;;21.75;9.30;;;;;;;22.95;47.84;95042.50;6059938;28;109747;-72
2023/08/18 13:10:24;;;;;;;21.23;9.40;;;;;;;22.94;47.66;95040.13;6062116;28;109972;-70
2023/08/18 13:13:27;;;;;;;21.60;9.30;;;;;;;22.91;47.34;95035.44;6052044;28;109944;-69
2023/08/18 13:16:30;;;;;;;20.03;8.40;;;;;;;23.00;46.34;95036.22;6061849;28;109793;-69
2023/08/18 13:19:36;;;;;;;21.25;9.57;;;;;;;23.09;46.64;95030.91;6063164;28;110275;-70
2023/08/18 13:22:43;;;;;;;14.65;8.20;;;;;;;23.14;46.29;95028.84;6061132;28;109799;-70
2023/08/18 13:25:48;;;;;;;15.45;8.20;;;;;;;23.17;45.69;95028.22;6050504;28;110169;-70
2023/08/18 13:28:51;;;;;;;22.80;9.40;;;;;;;23.24;44.80;95030.44;6059535;28;109899;-73
2023/08/18 13:31:54;;;;;;;19.75;9.35;;;;;;;22.98;44.95;95028.53;6047616;28;109763;-70
2023/08/18 13:34:57;;;;;;;17.75;8.55;;;;;;;22.84;45.70;95019.84;6061035;28;110261;-70
2023/08/18 13:38:00;;;;;;;15.00;8.35;;;;;;;22.79;45.97;95025.34;6057061;28;111142;-71
2023/08/18 13:41:04;;;;;;;17.73;9.20;;;;;;;22.80;46.44;95034.13;6055072;28;112238;-74
2023/08/18 13:44:08;;;;;;;17.48;9.48;;;;;;;22.95;45.85;95036.38;6062626;28;109774;-72
2023/08/18 13:47:11;;;;;;;18.92;9.52;;;;;;;23.07;45.58;95030.44;6053267;28;109671;-69
2023/08/18 13:50:14;;;;;;;15.77;8.97;;;;;;;22.91;44.92;95027.41;6054911;28;111075;-68
2023/08/18 13:53:17;;;;;;;16.97;8.53;;;;;;;23.22;45.06;95030.78;6057951;28;110253;-69
2023/08/18 13:56:21;;;;;;;13.10;9.03;;;;;;;23.48;44.05;95027.34;6062819;28;110527;-71
2023/08/18 13:59:25;;;;;;;14.02;8.43;;;;;;;23.28;44.44;95026.84;6055008;28;112348;-74
2023/08/18 14:02:28;;;;;;;19.02;8.65;;;;;;;23.24;44.93;95019.78;6069877;28;110483;-72
2023/08/18 14:05:32;;;;;;;23.83;8.88;;;;;;;22.97;45.94;95024.28;6066715;28;109724;-73
2023/08/18 14:08:35;;;;;;;19.05;8.23;;;;;;;22.97;46.81;95023.50;6064319;28;112411;-71
2023/08/18 14:11:39;;;;;;;19.10;9.20;;;;;;;22.91;47.24;95019.41;6052553;28;109912;-72